sensor_id;sensor_type;location;lat;lon;timestamp;pressure;altitude;pressure_sealevel;temperature;humidity
30516;BME280;17297;54.022;10.760;2023-02-28T00:00:34;103159.47;;;6.88;58.11
30516;BME280;17297;54.022;10.760;2023-02-28T00:03:01;103154.22;;;6.86;58.27
30516;BME280;17297;54.022;10.760;2023-02-28T00:05:27;103155.31;;;6.84;58.15
30516;BME280;17297;54.022;10.760;2023-02-28T00:07:53;103153.59;;;6.83;58.10
30516;BME280;17297;54.022;10.760;2023-02-28T00:10:23;103154.66;;;6.80;58.13
30516;BME280;17297;54.022;10.760;2023-02-28T00:12:50;103152.97;;;6.79;58.17
30516;BME280;17297;54.022;10.760;2023-02-28T00:15:15;103157.56;;;6.77;58.15
30516;BME280;17297;54.022;10.760;2023-02-28T00:17:41;103154.97;;;6.76;58.27
30516;BME280;17297;54.022;10.760;2023-02-28T00:20:08;103162.28;;;6.74;58.18
30516;BME280;17297;54.022;10.760;2023-02-28T00:22:36;103164.09;;;6.73;58.37
30516;BME280;17297;54.022;10.760;2023-02-28T00:25:03;103163.34;;;6.71;58.36
30516;BME280;17297;54.022;10.760;2023-02-28T00:27:29;103161.66;;;6.70;58.17
30516;BME280;17297;54.022;10.760;2023-02-28T00:29:54;103158.09;;;6.69;58.07
30516;BME280;17297;54.022;10.760;2023-02-28T00:32:19;103160.75;;;6.69;58.22
30516;BME280;17297;54.022;10.760;2023-02-28T00:34:45;103154.56;;;6.69;58.18
30516;BME280;17297;54.022;10.760;2023-02-28T00:37:11;103153.84;;;6.67;58.31
30516;BME280;17297;54.022;10.760;2023-02-28T00:39:37;103160.03;;;6.67;58.23
30516;BME280;17297;54.022;10.760;2023-02-28T00:42:04;103156.50;;;6.67;58.21
30516;BME280;17297;54.022;10.760;2023-02-28T00:44:30;103152.97;;;6.66;58.39
30516;BME280;17297;54.022;10.760;2023-02-28T00:46:56;103162.81;;;6.66;58.29
30516;BME280;17297;54.022;10.760;2023-02-28T00:49:24;103155.63;;;6.66;58.34
30516;BME280;17297;54.022;10.760;2023-02-28T00:51:50;103159.19;;;6.67;58.20
30516;BME280;17297;54.022;10.760;2023-02-28T00:54:17;103159.19;;;6.67;58.25
30516;BME280;17297;54.022;10.760;2023-02-28T00:56:46;103152.97;;;6.66;58.36
30516;BME280;17297;54.022;10.760;2023-02-28T00:59:13;103150.28;;;6.66;58.21
30516;BME280;17297;54.022;10.760;2023-02-28T01:01:39;103152.00;;;6.67;58.03
30516;BME280;17297;54.022;10.760;2023-02-28T01:04:05;103153.84;;;6.67;58.21
30516;BME280;17297;54.022;10.760;2023-02-28T01:06:31;103152.00;;;6.67;58.14
30516;BME280;17297;54.022;10.760;2023-02-28T01:08:57;103157.38;;;6.67;58.04
30516;BME280;17297;54.022;10.760;2023-02-28T01:11:22;103158.31;;;6.66;58.00
30516;BME280;17297;54.022;10.760;2023-02-28T01:13:48;103159.19;;;6.67;57.90
30516;BME280;17297;54.022;10.760;2023-02-28T01:16:15;103153.94;;;6.65;57.93
30516;BME280;17297;54.022;10.760;2023-02-28T01:18:40;103159.41;;;6.64;58.03
30516;BME280;17297;54.022;10.760;2023-02-28T01:21:08;103164.75;;;6.64;58.04
30516;BME280;17297;54.022;10.760;2023-02-28T01:23:34;103162.09;;;6.64;58.06
30516;BME280;17297;54.022;10.760;2023-02-28T01:26:12;103154.06;;;6.64;58.01
30516;BME280;17297;54.022;10.760;2023-02-28T01:28:38;103159.41;;;6.64;57.84
30516;BME280;17297;54.022;10.760;2023-02-28T01:31:04;103164.75;;;6.64;58.00
30516;BME280;17297;54.022;10.760;2023-02-28T01:33:31;103159.41;;;6.64;57.75
30516;BME280;17297;54.022;10.760;2023-02-28T01:35:59;103157.69;;;6.63;57.79
30516;BME280;17297;54.022;10.760;2023-02-28T01:38:25;103158.53;;;6.63;57.70
30516;BME280;17297;54.022;10.760;2023-02-28T01:40:53;103155.00;;;6.63;57.70
30516;BME280;17297;54.022;10.760;2023-02-28T01:43:30;103161.19;;;6.63;57.80
30516;BME280;17297;54.022;10.760;2023-02-28T01:45:58;103157.69;;;6.63;57.78
30516;BME280;17297;54.022;10.760;2023-02-28T01:48:36;103155.13;;;6.61;57.75
30516;BME280;17297;54.022;10.760;2023-02-28T01:51:18;103155.97;;;6.62;57.61
30516;BME280;17297;54.022;10.760;2023-02-28T01:53:49;103163.16;;;6.61;57.46
30516;BME280;17297;54.022;10.760;2023-02-28T01:56:20;103157.88;;;6.60;57.77
30516;BME280;17297;54.022;10.760;2023-02-28T01:58:51;103160.47;;;6.61;57.42
30516;BME280;17297;54.022;10.760;2023-02-28T02:01:17;103152.53;;;6.60;57.54
30516;BME280;17297;54.022;10.760;2023-02-28T02:03:58;103151.69;;;6.59;57.72
30516;BME280;17297;54.022;10.760;2023-02-28T02:06:29;103159.72;;;6.59;57.45
30516;BME280;17297;54.022;10.760;2023-02-28T02:08:56;103150.84;;;6.59;57.50
30516;BME280;17297;54.022;10.760;2023-02-28T02:11:23;103151.69;;;6.59;57.34
30516;BME280;17297;54.022;10.760;2023-02-28T02:17:15;103153.50;;;6.59;57.48
30516;BME280;17297;54.022;10.760;2023-02-28T02:30:56;103146.56;;;6.56;57.49
30516;BME280;17297;54.022;10.760;2023-02-28T02:36:53;103140.47;;;6.54;57.51
30516;BME280;17297;54.022;10.760;2023-02-28T02:42:38;103146.91;;;6.52;57.42
30516;BME280;17297;54.022;10.760;2023-02-28T02:45:36;103154.06;;;6.51;57.34
30516;BME280;17297;54.022;10.760;2023-02-28T02:48:05;103151.47;;;6.50;57.27
30516;BME280;17297;54.022;10.760;2023-02-28T02:50:42;103151.59;;;6.48;57.52
30516;BME280;17297;54.022;10.760;2023-02-28T02:53:11;103155.34;;;6.45;57.23
30516;BME280;17297;54.022;10.760;2023-02-28T02:55:42;103164.31;;;6.44;57.49
30516;BME280;17297;54.022;10.760;2023-02-28T02:58:16;103151.91;;;6.43;57.40
30516;BME280;17297;54.022;10.760;2023-02-28T03:00:47;103157.25;;;6.43;57.18
30516;BME280;17297;54.022;10.760;2023-02-28T03:03:18;103151.91;;;6.43;57.24
30516;BME280;17297;54.022;10.760;2023-02-28T03:05:48;103158.22;;;6.42;57.31
30516;BME280;17297;54.022;10.760;2023-02-28T03:08:14;103159.19;;;6.41;57.27
30516;BME280;17297;54.022;10.760;2023-02-28T03:10:45;103160.16;;;6.40;57.35
30516;BME280;17297;54.022;10.760;2023-02-28T03:13:26;103162.81;;;6.40;57.55
30516;BME280;17297;54.022;10.760;2023-02-28T03:24:18;103159.19;;;6.29;57.51
30516;BME280;17297;54.022;10.760;2023-02-28T03:26:50;103163.88;;;6.25;57.60
30516;BME280;17297;54.022;10.760;2023-02-28T03:29:23;103170.41;;;6.21;57.55
30516;BME280;17297;54.022;10.760;2023-02-28T03:32:05;103158.22;;;6.17;57.59
30516;BME280;17297;54.022;10.760;2023-02-28T03:34:38;103157.56;;;6.13;57.41
30516;BME280;17297;54.022;10.760;2023-02-28T03:37:16;103164.00;;;6.11;57.36
30516;BME280;17297;54.022;10.760;2023-02-28T03:39:47;103155.22;;;6.09;57.34
30516;BME280;17297;54.022;10.760;2023-02-28T03:42:20;103157.13;;;6.07;57.44
30516;BME280;17297;54.022;10.760;2023-02-28T03:45:02;103165.34;;;6.04;57.39
30516;BME280;17297;54.022;10.760;2023-02-28T03:47:34;103162.25;;;5.97;57.28
30516;BME280;17297;54.022;10.760;2023-02-28T03:50:06;103161.66;;;5.92;57.34
30516;BME280;17297;54.022;10.760;2023-02-28T03:52:36;103161.13;;;5.87;57.49
30516;BME280;17297;54.022;10.760;2023-02-28T03:55:07;103161.53;;;5.81;57.45
30516;BME280;17297;54.022;10.760;2023-02-28T03:57:53;103162.72;;;5.76;57.49
30516;BME280;17297;54.022;10.760;2023-02-28T04:00:38;103168.47;;;5.70;57.36
30516;BME280;17297;54.022;10.760;2023-02-28T04:03:05;103173.13;;;5.67;57.48
30516;BME280;17297;54.022;10.760;2023-02-28T04:05:32;103174.28;;;5.63;57.50
30516;BME280;17297;54.022;10.760;2023-02-28T04:08:06;103168.41;;;5.57;57.29
30516;BME280;17297;54.022;10.760;2023-02-28T04:10:32;103164.22;;;5.53;57.53
30516;BME280;17297;54.022;10.760;2023-02-28T04:12:58;103155.69;;;5.48;57.43
30516;BME280;17297;54.022;10.760;2023-02-28T04:15:23;103158.56;;;5.45;57.37
30516;BME280;17297;54.022;10.760;2023-02-28T04:17:50;103155.31;;;5.40;57.57
30516;BME280;17297;54.022;10.760;2023-02-28T04:20:16;103158.25;;;5.36;57.63
30516;BME280;17297;54.022;10.760;2023-02-28T04:22:41;103159.34;;;5.33;57.61
30516;BME280;17297;54.022;10.760;2023-02-28T04:25:07;103161.34;;;5.29;57.54
30516;BME280;17297;54.022;10.760;2023-02-28T04:27:33;103173.09;;;5.27;57.64
30516;BME280;17297;54.022;10.760;2023-02-28T04:29:59;103175.00;;;5.25;57.57
30516;BME280;17297;54.022;10.760;2023-02-28T04:32:25;103181.28;;;5.24;57.79
30516;BME280;17297;54.022;10.760;2023-02-28T04:34:50;103182.22;;;5.23;57.68
30516;BME280;17297;54.022;10.760;2023-02-28T04:37:15;103192.16;;;5.21;57.59
30516;BME280;17297;54.022;10.760;2023-02-28T04:39:42;103181.69;;;5.18;57.69
30516;BME280;17297;54.022;10.760;2023-02-28T04:42:08;103191.59;;;5.16;57.83
30516;BME280;17297;54.022;10.760;2023-02-28T04:44:33;103184.63;;;5.13;57.83
30516;BME280;17297;54.022;10.760;2023-02-28T04:46:59;103180.25;;;5.12;57.49
30516;BME280;17297;54.022;10.760;2023-02-28T04:49:24;103191.91;;;5.11;57.55
30516;BME280;17297;54.022;10.760;2023-02-28T04:51:50;103189.22;;;5.11;57.58
30516;BME280;17297;54.022;10.760;2023-02-28T04:54:15;103186.66;;;5.09;57.77
30516;BME280;17297;54.022;10.760;2023-02-28T04:56:43;103188.47;;;5.09;57.77
30516;BME280;17297;54.022;10.760;2023-02-28T04:59:08;103192.84;;;5.10;57.97
30516;BME280;17297;54.022;10.760;2023-02-28T05:01:34;103193.69;;;5.10;57.84
30516;BME280;17297;54.022;10.760;2023-02-28T05:04:02;103195.50;;;5.10;57.77
30516;BME280;17297;54.022;10.760;2023-02-28T05:06:30;103197.25;;;5.11;57.91
30516;BME280;17297;54.022;10.760;2023-02-28T05:08:56;103187.41;;;5.12;57.93
30516;BME280;17297;54.022;10.760;2023-02-28T05:11:28;103191.03;;;5.10;57.98
30516;BME280;17297;54.022;10.760;2023-02-28T05:13:54;103194.66;;;5.09;58.01
30516;BME280;17297;54.022;10.760;2023-02-28T05:16:20;103189.31;;;5.09;57.83
30516;BME280;17297;54.022;10.760;2023-02-28T05:18:46;103185.88;;;5.07;58.12
30516;BME280;17297;54.022;10.760;2023-02-28T05:21:36;103187.81;;;5.05;58.04
30516;BME280;17297;54.022;10.760;2023-02-28T05:24:07;103188.75;;;5.04;58.12
30516;BME280;17297;54.022;10.760;2023-02-28T05:26:39;103191.53;;;5.03;57.95
30516;BME280;17297;54.022;10.760;2023-02-28T05:29:05;103183.59;;;5.01;58.23
30516;BME280;17297;54.022;10.760;2023-02-28T05:31:31;103192.56;;;5.00;58.11
30516;BME280;17297;54.022;10.760;2023-02-28T05:33:57;103183.78;;;4.98;58.08
30516;BME280;17297;54.022;10.760;2023-02-28T05:36:23;103198.94;;;4.98;58.15
30516;BME280;17297;54.022;10.760;2023-02-28T05:38:49;103188.38;;;4.96;58.15
30516;BME280;17297;54.022;10.760;2023-02-28T05:41:16;103187.63;;;4.94;58.17
30516;BME280;17297;54.022;10.760;2023-02-28T05:43:42;103191.31;;;4.92;58.29
30516;BME280;17297;54.022;10.760;2023-02-28T05:46:10;103188.78;;;4.90;58.32
30516;BME280;17297;54.022;10.760;2023-02-28T05:48:37;103188.00;;;4.88;58.24
30516;BME280;17297;54.022;10.760;2023-02-28T05:51:04;103196.19;;;4.85;58.37
30516;BME280;17297;54.022;10.760;2023-02-28T05:53:30;103192.78;;;4.83;58.35
30516;BME280;17297;54.022;10.760;2023-02-28T05:55:55;103195.66;;;4.80;58.15
30516;BME280;17297;54.022;10.760;2023-02-28T05:58:21;103196.69;;;4.77;58.03
30516;BME280;17297;54.022;10.760;2023-02-28T06:00:47;103202.22;;;4.74;58.04
30516;BME280;17297;54.022;10.760;2023-02-28T06:03:13;103206.78;;;4.72;58.24
30516;BME280;17297;54.022;10.760;2023-02-28T06:05:39;103202.59;;;4.68;58.31
30516;BME280;17297;54.022;10.760;2023-02-28T06:08:04;103200.84;;;4.67;58.27
30516;BME280;17297;54.022;10.760;2023-02-28T06:10:33;103196.66;;;4.63;58.34
30516;BME280;17297;54.022;10.760;2023-02-28T06:13:05;103198.47;;;4.62;58.21
30516;BME280;17297;54.022;10.760;2023-02-28T06:15:31;103203.63;;;4.66;58.27
30516;BME280;17297;54.022;10.760;2023-02-28T06:17:56;103209.63;;;4.69;58.37
30516;BME280;17297;54.022;10.760;2023-02-28T06:20:23;103217.44;;;4.72;58.41
30516;BME280;17297;54.022;10.760;2023-02-28T06:22:49;103213.72;;;4.75;58.56
30516;BME280;17297;54.022;10.760;2023-02-28T06:25:15;103216.41;;;4.89;58.48
30516;BME280;17297;54.022;10.760;2023-02-28T06:27:41;103217.91;;;5.07;58.56
30516;BME280;17297;54.022;10.760;2023-02-28T06:30:09;103217.50;;;5.28;58.33
30516;BME280;17297;54.022;10.760;2023-02-28T06:32:37;103218.47;;;5.54;58.36
30516;BME280;17297;54.022;10.760;2023-02-28T06:35:06;103214.50;;;5.74;58.23
30516;BME280;17297;54.022;10.760;2023-02-28T06:37:32;103211.41;;;5.94;58.05
30516;BME280;17297;54.022;10.760;2023-02-28T06:39:58;103227.41;;;6.21;58.08
30516;BME280;17297;54.022;10.760;2023-02-28T06:42:24;103222.63;;;6.39;57.72
30516;BME280;17297;54.022;10.760;2023-02-28T06:44:56;103219.31;;;6.61;57.81
30516;BME280;17297;54.022;10.760;2023-02-28T06:47:25;103225.41;;;6.89;57.75
30516;BME280;17297;54.022;10.760;2023-02-28T06:49:50;103218.72;;;7.20;57.38
30516;BME280;17297;54.022;10.760;2023-02-28T06:52:16;103227.06;;;7.52;57.23
30516;BME280;17297;54.022;10.760;2023-02-28T06:54:42;103219.47;;;7.94;57.13
30516;BME280;17297;54.022;10.760;2023-02-28T06:57:07;103227.34;;;8.44;57.02
30516;BME280;17297;54.022;10.760;2023-02-28T06:59:33;103229.50;;;8.96;56.75
30516;BME280;17297;54.022;10.760;2023-02-28T07:01:58;103222.25;;;9.42;56.16
30516;BME280;17297;54.022;10.760;2023-02-28T07:04:24;103221.91;;;9.79;55.52
30516;BME280;17297;54.022;10.760;2023-02-28T07:06:49;103231.03;;;10.20;55.41
30516;BME280;17297;54.022;10.760;2023-02-28T07:09:15;103227.13;;;10.66;54.92
30516;BME280;17297;54.022;10.760;2023-02-28T07:11:40;103226.91;;;11.09;54.29
30516;BME280;17297;54.022;10.760;2023-02-28T07:14:08;103229.69;;;11.48;53.98
30516;BME280;17297;54.022;10.760;2023-02-28T07:16:33;103235.69;;;11.80;53.27
30516;BME280;17297;54.022;10.760;2023-02-28T07:18:59;103226.25;;;12.06;52.99
30516;BME280;17297;54.022;10.760;2023-02-28T07:21:24;103234.72;;;12.30;52.62
30516;BME280;17297;54.022;10.760;2023-02-28T07:23:50;103234.72;;;12.50;51.97
30516;BME280;17297;54.022;10.760;2023-02-28T07:26:18;103236.38;;;12.60;51.69
30516;BME280;17297;54.022;10.760;2023-02-28T07:28:46;103232.94;;;12.78;51.49
30516;BME280;17297;54.022;10.760;2023-02-28T07:31:13;103237.78;;;13.02;51.07
30516;BME280;17297;54.022;10.760;2023-02-28T07:33:42;103231.75;;;13.17;50.80
30516;BME280;17297;54.022;10.760;2023-02-28T07:36:10;103236.91;;;13.11;50.49
30516;BME280;17297;54.022;10.760;2023-02-28T07:38:43;103240.50;;;13.02;50.44
30516;BME280;17297;54.022;10.760;2023-02-28T07:41:09;103239.13;;;12.88;50.25
30516;BME280;17297;54.022;10.760;2023-02-28T07:43:36;103235.22;;;12.63;50.04
30516;BME280;17297;54.022;10.760;2023-02-28T07:46:06;103238.97;;;12.33;50.23
30516;BME280;17297;54.022;10.760;2023-02-28T07:48:32;103238.16;;;12.13;50.32
30516;BME280;17297;54.022;10.760;2023-02-28T07:50:58;103233.75;;;12.02;50.43
30516;BME280;17297;54.022;10.760;2023-02-28T07:53:24;103238.56;;;11.98;50.82
30516;BME280;17297;54.022;10.760;2023-02-28T07:55:50;103240.69;;;12.24;50.95
30516;BME280;17297;54.022;10.760;2023-02-28T07:58:15;103244.19;;;12.63;50.38
30516;BME280;17297;54.022;10.760;2023-02-28T08:00:41;103238.25;;;12.97;49.88
30516;BME280;17297;54.022;10.760;2023-02-28T08:03:11;103233.66;;;13.07;49.25
30516;BME280;17297;54.022;10.760;2023-02-28T08:05:40;103235.38;;;12.99;49.22
30516;BME280;17297;54.022;10.760;2023-02-28T08:08:06;103239.28;;;12.86;49.28
30516;BME280;17297;54.022;10.760;2023-02-28T08:10:32;103240.47;;;12.64;49.04
30516;BME280;17297;54.022;10.760;2023-02-28T08:12:58;103237.41;;;12.30;49.19
30516;BME280;17297;54.022;10.760;2023-02-28T08:15:23;103238.16;;;11.93;49.28
30516;BME280;17297;54.022;10.760;2023-02-28T08:17:49;103236.38;;;11.63;49.42
30516;BME280;17297;54.022;10.760;2023-02-28T08:20:15;103240.56;;;11.37;49.62
30516;BME280;17297;54.022;10.760;2023-02-28T08:22:40;103236.97;;;11.17;49.87
30516;BME280;17297;54.022;10.760;2023-02-28T08:25:07;103234.78;;;11.01;49.75
30516;BME280;17297;54.022;10.760;2023-02-28T08:27:33;103233.81;;;10.81;50.09
30516;BME280;17297;54.022;10.760;2023-02-28T08:29:58;103238.69;;;10.56;50.20
30516;BME280;17297;54.022;10.760;2023-02-28T08:32:24;103246.00;;;10.33;50.39
30516;BME280;17297;54.022;10.760;2023-02-28T08:34:49;103244.25;;;10.11;50.53
30516;BME280;17297;54.022;10.760;2023-02-28T08:37:15;103244.94;;;9.92;50.63
30516;BME280;17297;54.022;10.760;2023-02-28T08:39:40;103245.50;;;9.75;50.59
30516;BME280;17297;54.022;10.760;2023-02-28T08:42:06;103254.69;;;9.61;50.89
30516;BME280;17297;54.022;10.760;2023-02-28T08:44:31;103256.69;;;9.48;51.15
30516;BME280;17297;54.022;10.760;2023-02-28T08:46:57;103254.84;;;9.37;51.25
30516;BME280;17297;54.022;10.760;2023-02-28T08:49:22;103244.88;;;9.17;51.04
30516;BME280;17297;54.022;10.760;2023-02-28T08:51:48;103251.09;;;8.95;51.29
30516;BME280;17297;54.022;10.760;2023-02-28T08:54:13;103250.22;;;8.72;51.73
30516;BME280;17297;54.022;10.760;2023-02-28T08:56:41;103252.75;;;8.51;51.82
30516;BME280;17297;54.022;10.760;2023-02-28T08:59:09;103246.94;;;8.33;52.20
30516;BME280;17297;54.022;10.760;2023-02-28T09:01:34;103254.09;;;8.21;52.49
30516;BME280;17297;54.022;10.760;2023-02-28T09:04:01;103250.63;;;8.08;52.37
30516;BME280;17297;54.022;10.760;2023-02-28T09:06:28;103261.41;;;7.95;52.63
30516;BME280;17297;54.022;10.760;2023-02-28T09:08:56;103257.72;;;7.85;52.96
30516;BME280;17297;54.022;10.760;2023-02-28T09:11:23;103260.72;;;7.80;53.05
30516;BME280;17297;54.022;10.760;2023-02-28T09:13:49;103258.50;;;7.74;53.17
30516;BME280;17297;54.022;10.760;2023-02-28T09:16:16;103258.84;;;7.70;53.17
30516;BME280;17297;54.022;10.760;2023-02-28T09:18:43;103260.78;;;7.68;53.39
30516;BME280;17297;54.022;10.760;2023-02-28T09:21:11;103263.69;;;7.64;53.60
30516;BME280;17297;54.022;10.760;2023-02-28T09:23:43;103263.06;;;7.61;53.63
30516;BME280;17297;54.022;10.760;2023-02-28T09:26:16;103256.94;;;7.59;53.78
30516;BME280;17297;54.022;10.760;2023-02-28T09:28:42;103255.25;;;7.58;53.59
30516;BME280;17297;54.022;10.760;2023-02-28T09:31:12;103259.09;;;7.54;53.82
30516;BME280;17297;54.022;10.760;2023-02-28T09:33:38;103252.03;;;7.53;53.88
30516;BME280;17297;54.022;10.760;2023-02-28T09:36:04;103256.66;;;7.51;54.17
30516;BME280;17297;54.022;10.760;2023-02-28T09:38:30;103269.41;;;7.47;54.01
30516;BME280;17297;54.022;10.760;2023-02-28T09:41:01;103262.69;;;7.42;54.42
30516;BME280;17297;54.022;10.760;2023-02-28T09:43:34;103270.06;;;7.38;54.48
30516;BME280;17297;54.022;10.760;2023-02-28T09:46:25;103265.69;;;7.37;54.54
30516;BME280;17297;54.022;10.760;2023-02-28T09:48:51;103274.47;;;7.39;54.57
30516;BME280;17297;54.022;10.760;2023-02-28T09:51:39;103269.97;;;7.39;54.58
30516;BME280;17297;54.022;10.760;2023-02-28T09:54:19;103273.41;;;7.42;54.67
30516;BME280;17297;54.022;10.760;2023-02-28T09:56:59;103271.56;;;7.42;54.94
30516;BME280;17297;54.022;10.760;2023-02-28T10:04:57;103275.84;;;7.45;55.10
30516;BME280;17297;54.022;10.760;2023-02-28T10:10:03;103287.28;;;7.47;55.24
30516;BME280;17297;54.022;10.760;2023-02-28T10:12:31;103275.63;;;7.48;55.22
30516;BME280;17297;54.022;10.760;2023-02-28T10:14:59;103276.50;;;7.48;55.27
30516;BME280;17297;54.022;10.760;2023-02-28T10:17:37;103278.94;;;7.51;55.44
30516;BME280;17297;54.022;10.760;2023-02-28T10:20:11;103279.56;;;7.55;55.75
30516;BME280;17297;54.022;10.760;2023-02-28T10:25:28;103279.00;;;7.62;55.87
30516;BME280;17297;54.022;10.760;2023-02-28T10:28:14;103278.91;;;7.64;55.89
30516;BME280;17297;54.022;10.760;2023-02-28T10:30:44;103282.22;;;7.68;55.97
30516;BME280;17297;54.022;10.760;2023-02-28T10:33:31;103282.97;;;7.70;56.00
30516;BME280;17297;54.022;10.760;2023-02-28T10:35:58;103281.13;;;7.70;55.92
30516;BME280;17297;54.022;10.760;2023-02-28T10:38:26;103281.84;;;7.72;55.76
30516;BME280;17297;54.022;10.760;2023-02-28T10:41:05;103280.16;;;7.71;55.73
30516;BME280;17297;54.022;10.760;2023-02-28T10:43:31;103280.91;;;7.73;55.68
30516;BME280;17297;54.022;10.760;2023-02-28T10:51:24;103284.03;;;7.67;56.12
30516;BME280;17297;54.022;10.760;2023-02-28T10:53:51;103278.69;;;7.67;56.26
30516;BME280;17297;54.022;10.760;2023-02-28T10:56:18;103282.00;;;7.71;56.47
30516;BME280;17297;54.022;10.760;2023-02-28T11:01:40;103279.84;;;7.76;56.75
30516;BME280;17297;54.022;10.760;2023-02-28T11:06:51;103267.38;;;7.75;56.77
30516;BME280;17297;54.022;10.760;2023-02-28T11:09:28;103273.59;;;7.75;56.88
30516;BME280;17297;54.022;10.760;2023-02-28T11:11:56;103263.75;;;7.76;57.15
30516;BME280;17297;54.022;10.760;2023-02-28T11:14:26;103271.91;;;7.74;57.19
30516;BME280;17297;54.022;10.760;2023-02-28T11:16:53;103262.88;;;7.75;57.10
30516;BME280;17297;54.022;10.760;2023-02-28T11:19:23;103260.31;;;7.74;57.17
30516;BME280;17297;54.022;10.760;2023-02-28T11:22:08;103259.47;;;7.73;57.19
30516;BME280;17297;54.022;10.760;2023-02-28T11:24:44;103269.34;;;7.73;57.04
30516;BME280;17297;54.022;10.760;2023-02-28T11:27:42;103266.53;;;7.74;57.07
30516;BME280;17297;54.022;10.760;2023-02-28T11:32:50;103262.66;;;7.78;57.47
30516;BME280;17297;54.022;10.760;2023-02-28T11:35:33;103261.56;;;7.81;57.67
30516;BME280;17297;54.022;10.760;2023-02-28T11:38:01;103251.59;;;7.83;57.60
30516;BME280;17297;54.022;10.760;2023-02-28T11:40:41;103253.44;;;7.82;57.83
30516;BME280;17297;54.022;10.760;2023-02-28T11:43:19;103258.91;;;7.81;57.99
30516;BME280;17297;54.022;10.760;2023-02-28T11:51:21;103248.19;;;7.81;58.20
30516;BME280;17297;54.022;10.760;2023-02-28T11:56:48;103235.41;;;7.84;58.22
30516;BME280;17297;54.022;10.760;2023-02-28T11:59:35;103235.16;;;7.87;58.43
30516;BME280;17297;54.022;10.760;2023-02-28T12:02:26;103236.91;;;7.89;58.20
30516;BME280;17297;54.022;10.760;2023-02-28T12:10:42;103227.41;;;7.96;58.42
30516;BME280;17297;54.022;10.760;2023-02-28T12:13:21;103225.38;;;7.99;58.26
30516;BME280;17297;54.022;10.760;2023-02-28T12:26:45;103215.25;;;8.03;58.23
30516;BME280;17297;54.022;10.760;2023-02-28T12:29:28;103201.00;;;8.02;58.28
30516;BME280;17297;54.022;10.760;2023-02-28T12:32:09;103200.03;;;8.03;58.22
30516;BME280;17297;54.022;10.760;2023-02-28T12:34:42;103202.84;;;8.02;58.33
30516;BME280;17297;54.022;10.760;2023-02-28T12:37:17;103199.41;;;8.00;58.37
30516;BME280;17297;54.022;10.760;2023-02-28T12:39:51;103202.31;;;7.97;58.36
30516;BME280;17297;54.022;10.760;2023-02-28T12:42:27;103195.50;;;7.93;58.43
30516;BME280;17297;54.022;10.760;2023-02-28T12:44:57;103190.22;;;7.91;58.51
30516;BME280;17297;54.022;10.760;2023-02-28T12:47:24;103191.22;;;7.90;58.30
30516;BME280;17297;54.022;10.760;2023-02-28T12:49:53;103185.97;;;7.89;58.57
30516;BME280;17297;54.022;10.760;2023-02-28T12:52:26;103179.75;;;7.88;58.50
30516;BME280;17297;54.022;10.760;2023-02-28T12:55:04;103171.59;;;7.90;58.43
30516;BME280;17297;54.022;10.760;2023-02-28T12:57:41;103174.16;;;7.91;58.62
30516;BME280;17297;54.022;10.760;2023-02-28T13:00:17;103176.59;;;7.94;58.63
30516;BME280;17297;54.022;10.760;2023-02-28T13:05:54;103173.59;;;7.99;58.82
30516;BME280;17297;54.022;10.760;2023-02-28T13:14:00;103163.38;;;8.04;58.59
30516;BME280;17297;54.022;10.760;2023-02-28T13:16:27;103168.50;;;8.07;58.69
30516;BME280;17297;54.022;10.760;2023-02-28T13:19:09;103153.97;;;8.09;58.69
30516;BME280;17297;54.022;10.760;2023-02-28T13:21:43;103159.00;;;8.14;58.93
30516;BME280;17297;54.022;10.760;2023-02-28T13:24:10;103158.75;;;8.17;58.70
30516;BME280;17297;54.022;10.760;2023-02-28T13:34:42;103157.78;;;8.18;58.92
30516;BME280;17297;54.022;10.760;2023-02-28T13:39:48;103157.78;;;8.18;58.83
30516;BME280;17297;54.022;10.760;2023-02-28T13:42:34;103160.47;;;8.18;59.01
30516;BME280;17297;54.022;10.760;2023-02-28T13:47:44;103158.50;;;8.09;59.00
30516;BME280;17297;54.022;10.760;2023-02-28T14:01:04;103148.94;;;7.94;58.46
30516;BME280;17297;54.022;10.760;2023-02-28T14:03:53;103149.94;;;7.93;58.40
30516;BME280;17297;54.022;10.760;2023-02-28T14:06:36;103154.53;;;7.91;58.58
30516;BME280;17297;54.022;10.760;2023-02-28T14:09:25;103154.66;;;7.89;58.80
30516;BME280;17297;54.022;10.760;2023-02-28T14:11:53;103146.72;;;7.87;58.54
30516;BME280;17297;54.022;10.760;2023-02-28T14:17:15;103154.78;;;7.87;58.37
30516;BME280;17297;54.022;10.760;2023-02-28T14:19:45;103153.91;;;7.87;58.35
30516;BME280;17297;54.022;10.760;2023-02-28T14:27:40;103156.50;;;7.89;58.28
30516;BME280;17297;54.022;10.760;2023-02-28T14:33:27;103150.41;;;7.86;58.19
30516;BME280;17297;54.022;10.760;2023-02-28T14:38:27;103139.06;;;7.83;58.00
30516;BME280;17297;54.022;10.760;2023-02-28T14:40:55;103136.38;;;7.83;57.92
30516;BME280;17297;54.022;10.760;2023-02-28T14:43:24;103138.06;;;7.84;57.94
30516;BME280;17297;54.022;10.760;2023-02-28T14:45:57;103133.56;;;7.84;58.09
30516;BME280;17297;54.022;10.760;2023-02-28T14:48:24;103137.13;;;7.85;58.01
30516;BME280;17297;54.022;10.760;2023-02-28T14:50:59;103129.09;;;7.85;58.19
30516;BME280;17297;54.022;10.760;2023-02-28T14:53:28;103124.56;;;7.85;57.93
30516;BME280;17297;54.022;10.760;2023-02-28T14:55:55;103122.84;;;7.84;58.03
30516;BME280;17297;54.022;10.760;2023-02-28T14:58:29;103131.75;;;7.85;58.33
30516;BME280;17297;54.022;10.760;2023-02-28T15:00:58;103117.25;;;7.87;58.35
30516;BME280;17297;54.022;10.760;2023-02-28T15:03:29;103112.75;;;7.88;58.23
30516;BME280;17297;54.022;10.760;2023-02-28T15:05:58;103119.94;;;7.87;58.20